Time;durP1;ratioP1;P1;durP2;ratioP2;P2;SDS_P1;SDS_P2;PMS_P1;PMS_P2;Temp;Humidity;BMP_temperature;BMP_pressure;BME280_temperature;BME280_humidity;BME280_pressure;Samples;Min_cycle;Max_cycle;Signal;HPM_P1;HPM_P2
2022/12/27 00:02:23;;;;;;;6.57;3.50;;;;;;;1.91;100.00;102046.34;5021112;28;20025;-63
2022/12/27 00:04:49;;;;;;;8.47;3.50;;;;;;;1.92;100.00;102046.47;5030369;28;20017;-64
2022/12/27 00:07:14;;;;;;;7.67;3.90;;;;;;;1.90;100.00;102048.00;5030691;28;20026;-64
2022/12/27 00:09:39;;;;;;;8.80;3.77;;;;;;;1.90;100.00;102055.69;5029942;28;20026;-64
2022/12/27 00:12:05;;;;;;;7.40;3.43;;;;;;;1.90;100.00;102050.56;5029600;28;20027;-64
2022/12/27 00:14:30;;;;;;;5.83;3.80;;;;;;;1.89;100.00;102058.97;5019451;28;20512;-64
2022/12/27 00:16:56;;;;;;;8.80;3.43;;;;;;;1.90;100.00;102052.22;5010851;28;20394;-64
2022/12/27 00:19:21;;;;;;;9.90;3.90;;;;;;;1.91;100.00;102060.03;5010505;28;20042;-64
2022/12/27 00:21:46;;;;;;;8.27;3.60;;;;;;;1.90;100.00;102057.34;5013156;28;20429;-64
2022/12/27 00:24:11;;;;;;;8.13;3.77;;;;;;;1.90;100.00;102059.91;5020214;28;20022;-66
2022/12/27 00:26:39;;;;;;;8.97;3.77;;;;;;;1.89;100.00;102058.09;5012192;28;20767;-64
2022/12/27 00:29:05;;;;;;;6.13;3.43;;;;;;;1.89;100.00;102058.09;5023402;28;20517;-64
2022/12/27 00:31:31;;;;;;;6.93;3.50;;;;;;;1.89;100.00;102053.88;5018665;28;20021;-64
2022/12/27 00:33:59;;;;;;;7.47;3.70;;;;;;;1.92;100.00;102054.13;5016125;28;20017;-64
2022/12/27 00:36:27;;;;;;;9.03;3.40;;;;;;;1.92;100.00;102064.34;5029824;28;20025;-64
2022/12/27 00:38:52;;;;;;;5.87;3.17;;;;;;;1.95;100.00;102065.38;5027240;28;20047;-64
2022/12/27 00:41:18;;;;;;;6.23;2.73;;;;;;;1.95;100.00;102067.94;5021767;28;20108;-64
2022/12/27 00:43:44;;;;;;;8.53;3.70;;;;;;;1.96;100.00;102072.31;5029321;28;20478;-64
2022/12/27 00:46:10;;;;;;;11.03;3.60;;;;;;;1.94;100.00;102063.63;5019991;28;20144;-64
2022/12/27 00:48:36;;;;;;;10.23;3.73;;;;;;;1.90;100.00;102065.91;5023034;28;20494;-63
2022/12/27 00:51:15;;;;;;;6.53;3.33;;;;;;;1.94;100.00;102071.28;5008755;28;20425;-64
2022/12/27 00:53:40;;;;;;;10.67;3.70;;;;;;;1.92;100.00;102078.81;5027647;28;20519;-64
2022/12/27 00:56:13;;;;;;;10.70;3.77;;;;;;;1.87;100.00;102078.41;5029449;28;20136;-64
2022/12/27 00:58:38;;;;;;;8.10;3.73;;;;;;;1.88;100.00;102090.44;5029260;28;20412;-64
2022/12/27 01:01:16;;;;;;;8.60;3.60;;;;;;;1.88;100.00;102077.66;5029546;28;20021;-64
2022/12/27 01:03:41;;;;;;;8.00;3.03;;;;;;;1.91;100.00;102088.16;5017432;28;20395;-64
2022/12/27 01:06:16;;;;;;;7.17;3.20;;;;;;;1.90;100.00;102094.03;5028732;28;20081;-64
2022/12/27 01:08:41;;;;;;;7.43;3.20;;;;;;;1.92;100.00;102089.06;5029043;28;20025;-64
2022/12/27 01:11:08;;;;;;;8.77;3.20;;;;;;;1.92;100.00;102086.50;5028616;28;20091;-64
2022/12/27 01:13:34;;;;;;;8.20;3.17;;;;;;;1.91;100.00;102093.25;5029411;28;20021;-64
2022/12/27 01:15:59;;;;;;;10.93;3.27;;;;;;;1.92;100.00;102100.16;5029277;28;20519;-64
2022/12/27 01:18:25;;;;;;;8.60;3.20;;;;;;;1.91;100.00;102093.25;5015591;28;20021;-64
2022/12/27 01:20:50;;;;;;;7.50;2.90;;;;;;;1.92;100.00;102099.28;5028501;28;20033;-64
2022/12/27 01:23:16;;;;;;;7.87;3.00;;;;;;;1.94;100.00;102107.09;5026982;28;20026;-64
2022/12/27 01:25:41;;;;;;;7.57;2.87;;;;;;;1.91;100.00;102100.94;5009087;28;20013;-64
2022/12/27 01:28:08;;;;;;;7.03;3.20;;;;;;;1.95;100.00;102108.88;5013306;28;20083;-64
2022/12/27 01:30:33;;;;;;;6.87;2.93;;;;;;;1.92;100.00;102100.16;5021320;28;20025;-64
2022/12/27 01:32:58;;;;;;;8.03;3.30;;;;;;;1.92;100.00;102105.25;5016903;28;20466;-64
2022/12/27 01:35:24;;;;;;;7.57;3.50;;;;;;;1.94;100.00;102112.19;5013725;28;20444;-64
2022/12/27 01:37:50;;;;;;;8.50;3.00;;;;;;;1.94;100.00;102118.22;5027886;28;20024;-64
2022/12/27 01:40:15;;;;;;;9.73;3.50;;;;;;;1.95;100.00;102112.31;5010855;28;20025;-63
2022/12/27 01:42:53;;;;;;;6.87;3.17;;;;;;;1.98;100.00;102116.81;5009102;28;20379;-63
2022/12/27 01:45:25;;;;;;;14.67;3.23;;;;;;;1.98;100.00;102127.06;5012282;28;20100;-63
2022/12/27 01:48:15;;;;;;;8.07;3.33;;;;;;;1.99;100.00;102118.59;5017871;28;20026;-64
2022/12/27 01:50:43;;;;;;;11.70;3.60;;;;;;;2.01;100.00;102135.91;5008769;28;20042;-63
2022/12/27 01:53:21;;;;;;;8.13;3.07;;;;;;;2.02;100.00;102129.09;5022612;28;20044;-63
2022/12/27 01:55:57;;;;;;;11.30;3.30;;;;;;;2.01;100.00;102127.31;5028209;28;20108;-64
2022/12/27 01:58:25;;;;;;;5.60;2.70;;;;;;;2.02;100.00;102136.78;5017722;28;20028;-63
2022/12/27 02:00:51;;;;;;;10.37;3.40;;;;;;;2.02;100.00;102137.69;5025520;28;20031;-63
2022/12/27 02:03:33;;;;;;;8.50;3.03;;;;;;;2.03;100.00;102133.47;5028016;28;20029;-63
2022/12/27 02:06:01;;;;;;;8.53;3.30;;;;;;;2.03;100.00;102138.59;5021218;28;20462;-63
2022/12/27 02:08:40;;;;;;;7.03;2.83;;;;;;;2.04;100.00;102148.03;5008675;28;20112;-63
2022/12/27 02:11:07;;;;;;;6.80;2.93;;;;;;;2.02;100.00;102145.34;5008627;28;20144;-63
2022/12/27 02:13:38;;;;;;;6.23;2.50;;;;;;;2.04;100.00;102148.03;5009044;28;20393;-63
2022/12/27 02:16:16;;;;;;;9.65;3.38;;;;;;;2.02;100.00;102150.47;5009161;28;20022;-63
2022/12/27 02:18:42;;;;;;;8.47;3.10;;;;;;;2.01;100.00;102140.09;5009081;28;20492;-64
2022/12/27 02:21:32;;;;;;;8.97;3.90;;;;;;;2.01;100.00;102142.66;5009212;28;20025;-63
2022/12/27 02:24:32;;;;;;;5.40;2.70;;;;;;;2.01;100.00;102142.66;5008735;28;20033;-63
2022/12/27 02:27:13;;;;;;;10.50;3.20;;;;;;;2.00;100.00;102145.97;5009471;28;20392;-63
2022/12/27 02:29:52;;;;;;;;;;;;;;;2.00;100.00;102143.41;5027371;28;20045;-64
2022/12/27 02:32:27;;;;;;;9.30;3.37;;;;;;;1.99;100.00;102154.41;5018821;28;19913;-64
2022/12/27 02:35:17;;;;;;;7.33;3.40;;;;;;;1.97;100.00;102149.16;5008066;28;20508;-63
2022/12/27 02:37:58;;;;;;;9.33;2.87;;;;;;;2.00;100.00;102161.31;5007947;28;20091;-63
2022/12/27 02:55:00;;;;;;;4.77;2.97;;;;;;;2.06;100.00;102151.63;5008129;28;20088;-63
2022/12/27 02:57:54;;;;;;;9.07;2.83;;;;;;;2.04;100.00;102146.38;5008906;28;20067;-63
2022/12/27 03:03:33;;;;;;;7.63;2.77;;;;;;;2.06;100.00;102138.84;5008536;28;20053;-63
2022/12/27 03:06:41;;;;;;;5.97;2.70;;;;;;;2.09;100.00;102146.78;5008086;28;20573;-63
2022/12/27 03:17:57;;;;;;;6.43;2.77;;;;;;;2.10;100.00;102148.59;5016306;28;20048;-63
2022/12/27 03:25:55;;;;;;;6.80;2.27;;;;;;;2.14;100.00;102158.31;5007387;28;20196;-64
2022/12/27 03:39:48;;;;;;;8.77;2.37;;;;;;;2.20;100.00;102190.28;5019819;28;20036;-64
2022/12/27 03:45:07;;;;;;;10.57;2.80;;;;;;;2.23;100.00;102191.47;5007397;28;20045;-64
2022/12/27 03:47:53;;;;;;;7.07;2.37;;;;;;;2.24;100.00;102192.38;5006916;28;20540;-64
2022/12/27 03:50:35;;;;;;;12.23;3.07;;;;;;;2.22;100.00;102183.66;5006679;28;20497;-64
2022/12/27 03:53:09;;;;;;;7.27;2.97;;;;;;;2.23;100.00;102186.34;5007202;28;20037;-64
2022/12/27 03:55:35;;;;;;;8.83;3.10;;;;;;;2.22;100.00;102189.69;5006894;28;20580;-64
2022/12/27 03:58:00;;;;;;;9.73;3.20;;;;;;;2.21;100.00;102184.44;5014789;28;20038;-64
2022/12/27 04:00:26;;;;;;;9.73;2.90;;;;;;;2.21;100.00;102194.66;5025736;28;20029;-64
2022/12/27 04:02:51;;;;;;;10.90;3.37;;;;;;;2.18;100.00;102194.41;5026552;28;20017;-64
2022/12/27 04:05:16;;;;;;;8.93;2.70;;;;;;;2.16;100.00;102196.81;5026114;28;20041;-64
2022/12/27 04:35:01;;;;;;;6.87;2.70;;;;;;;2.12;100.00;102199.88;5027666;28;20156;-64
2022/12/27 04:37:26;;;;;;;11.47;3.77;;;;;;;2.10;100.00;102197.19;5018726;28;20457;-64
2022/12/27 04:56:16;;;;;;;7.53;2.50;;;;;;;2.07;100.00;102221.59;5011133;28;20087;-64
2022/12/27 05:02:01;;;;;;;7.83;2.30;;;;;;;2.06;100.00;102220.69;5010652;28;20026;-63
2022/12/27 05:04:11;;;;;;;10.63;2.10;;;;;;;2.03;100.00;102230.66;5011264;28;20025;-63
2022/12/27 05:06:37;;;;;;;7.20;2.20;;;;;;;2.05;100.00;102236.81;5010915;28;20021;-63
2022/12/27 05:14:37;;;;;;;6.93;2.20;;;;;;;2.06;100.00;102224.88;4987523;28;20041;-64
2022/12/27 05:17:03;;;;;;;9.30;2.50;;;;;;;2.06;100.00;102230.00;5010787;28;20284;-64
2022/12/27 05:19:28;;;;;;;7.47;2.30;;;;;;;2.02;100.00;102233.94;5010090;28;20037;-64
2022/12/27 05:27:21;;;;;;;11.40;2.80;;;;;;;1.94;100.00;102229.81;5010853;28;20044;-64
2022/12/27 05:29:46;;;;;;;10.17;2.37;;;;;;;1.91;100.00;102235.53;5020996;28;20029;-64
2022/12/27 05:32:11;;;;;;;8.20;2.43;;;;;;;1.90;100.00;102242.34;5009019;28;20466;-62
2022/12/27 05:34:37;;;;;;;8.50;3.33;;;;;;;1.90;100.00;102246.53;5023441;28;20096;-63
2022/12/27 05:37:02;;;;;;;9.47;2.67;;;;;;;1.90;100.00;102257.69;5009855;28;20026;-63
2022/12/27 05:39:27;;;;;;;13.60;3.20;;;;;;;1.97;100.00;102256.56;5010177;28;20036;-63
2022/12/27 05:41:53;;;;;;;8.63;2.90;;;;;;;2.01;100.00;102265.41;5009991;28;20025;-63
2022/12/27 05:44:18;;;;;;;5.70;2.80;;;;;;;2.04;100.00;102270.78;5009632;28;20498;-63
2022/12/27 05:46:43;;;;;;;12.80;3.30;;;;;;;2.06;100.00;102278.59;5014598;28;20335;-63
2022/12/27 05:49:08;;;;;;;10.33;3.33;;;;;;;2.09;100.00;102286.53;5015369;28;20036;-64
2022/12/27 05:51:33;;;;;;;13.17;2.80;;;;;;;2.10;100.00;102289.25;5008601;28;20485;-63
2022/12/27 05:53:59;;;;;;;8.63;2.60;;;;;;;2.12;100.00;102295.38;5021683;28;20031;-64
2022/12/27 05:56:24;;;;;;;9.47;3.13;;;;;;;2.15;100.00;102302.44;5015371;28;20033;-64
2022/12/27 05:58:52;;;;;;;8.50;3.03;;;;;;;2.16;100.00;102294.91;5015126;28;20061;-63
2022/12/27 06:01:17;;;;;;;10.67;2.87;;;;;;;2.15;100.00;102293.13;5028264;28;20029;-64
2022/12/27 06:03:43;;;;;;;6.70;2.93;;;;;;;2.15;100.00;102293.13;5028111;28;20227;-63
2022/12/27 06:06:09;;;;;;;10.13;3.13;;;;;;;2.16;100.00;102299.13;5027960;28;20100;-64
2022/12/27 06:08:35;;;;;;;13.53;3.33;;;;;;;2.13;100.00;102288.63;5027472;28;20112;-64
2022/12/27 06:11:13;;;;;;;8.57;3.33;;;;;;;2.11;100.00;102283.38;5027923;28;20032;-63
2022/12/27 06:13:39;;;;;;;11.73;3.43;;;;;;;2.09;100.00;102284.88;5027455;28;20405;-64
2022/12/27 06:16:07;;;;;;;7.27;2.73;;;;;;;2.07;100.00;102291.53;5027192;28;20025;-63
2022/12/27 06:18:34;;;;;;;5.40;2.43;;;;;;;2.03;100.00;102304.81;5027189;28;20048;-63
2022/12/27 06:21:09;;;;;;;11.87;2.90;;;;;;;2.00;100.00;102297.75;5027234;28;20108;-63
2022/12/27 06:23:36;;;;;;;8.47;2.70;;;;;;;1.97;100.00;102300.03;5026863;28;20025;-63
2022/12/27 06:26:11;;;;;;;8.87;3.13;;;;;;;1.96;100.00;102297.34;5027749;28;20034;-63
2022/12/27 06:28:36;;;;;;;7.53;2.67;;;;;;;1.89;100.00;102294.22;5028360;28;20210;-63
2022/12/27 06:31:02;;;;;;;7.03;2.80;;;;;;;1.84;100.00;102305.69;5009964;28;20509;-64
2022/12/27 06:33:28;;;;;;;6.43;2.27;;;;;;;1.79;100.00;102301.81;5007956;28;20030;-63
2022/12/27 06:35:53;;;;;;;8.43;2.73;;;;;;;1.75;100.00;102299.72;5008175;28;20022;-63
2022/12/27 06:38:19;;;;;;;11.63;3.37;;;;;;;1.73;100.00;102302.16;5007220;28;20041;-64
2022/12/27 06:40:44;;;;;;;8.53;3.00;;;;;;;1.72;100.00;102304.56;5019141;28;20034;-63
2022/12/27 06:43:09;;;;;;;8.43;3.20;;;;;;;1.69;100.00;102289.88;5010037;28;20032;-63
2022/12/27 06:45:34;;;;;;;11.00;3.73;;;;;;;1.68;100.00;102299.19;5007886;28;20036;-64
2022/12/27 06:48:00;;;;;;;9.90;2.90;;;;;;;1.66;100.00;102293.03;5007010;28;20174;-64
2022/12/27 06:50:25;;;;;;;9.33;3.10;;;;;;;1.63;100.00;102299.50;5008502;28;20498;-63
2022/12/27 06:52:51;;;;;;;10.17;3.30;;;;;;;1.62;100.00;102298.59;5007954;28;20029;-63
2022/12/27 06:55:16;;;;;;;10.60;2.83;;;;;;;1.60;100.00;102289.88;5019346;28;20585;-63
2022/12/27 06:57:41;;;;;;;9.53;3.87;;;;;;;1.57;100.00;102299.84;5009127;28;20026;-65
2022/12/27 07:00:07;;;;;;;8.67;3.37;;;;;;;1.55;100.00;102302.25;5019001;28;20029;-63
2022/12/27 07:02:32;;;;;;;7.80;2.50;;;;;;;1.51;100.00;102305.28;5026936;28;20025;-62
2022/12/27 07:04:58;;;;;;;10.17;3.80;;;;;;;1.49;100.00;102301.69;5027153;28;20414;-63
2022/12/27 07:07:23;;;;;;;10.80;3.33;;;;;;;1.50;100.00;102312.81;5026487;28;20033;-63
2022/12/27 07:09:48;;;;;;;6.90;3.20;;;;;;;1.49;100.00;102311.00;5027241;28;20025;-63
2022/12/27 07:12:14;;;;;;;9.13;3.80;;;;;;;1.46;100.00;102320.97;5026387;28;20017;-63
2022/12/27 07:14:39;;;;;;;5.93;4.13;;;;;;;1.43;100.00;102319.91;5026541;28;20037;-63
2022/12/27 07:17:04;;;;;;;11.87;4.47;;;;;;;1.43;100.00;102312.25;5025913;28;20817;-63
2022/12/27 07:19:29;;;;;;;5.77;3.43;;;;;;;1.46;100.00;102320.97;5026564;28;20029;-62
2022/12/27 07:21:55;;;;;;;10.20;4.53;;;;;;;1.42;100.00;102318.09;5025823;28;20485;-63
2022/12/27 07:24:20;;;;;;;10.27;4.47;;;;;;;1.42;100.00;102320.66;5025115;28;20087;-63
2022/12/27 07:26:45;;;;;;;10.00;4.30;;;;;;;1.42;100.00;102320.66;5024383;28;20492;-63
2022/12/27 07:29:11;;;;;;;8.73;4.10;;;;;;;1.46;100.00;102323.50;5024897;28;20105;-64
2022/12/27 07:31:36;;;;;;;10.53;4.10;;;;;;;1.44;100.00;102324.25;5022944;28;20444;-63
2022/12/27 07:34:02;;;;;;;10.70;4.13;;;;;;;1.46;100.00;102331.19;5014110;28;20030;-64
2022/12/27 07:36:33;;;;;;;10.53;3.73;;;;;;;1.46;100.00;102329.50;5024823;28;20520;-63
2022/12/27 07:38:58;;;;;;;12.75;3.90;;;;;;;1.48;100.00;102325.44;5023918;28;20022;-63
2022/12/27 07:41:24;;;;;;;9.80;3.90;;;;;;;1.50;100.00;102333.25;5024432;28;20432;-63
2022/12/27 07:43:49;;;;;;;8.67;4.20;;;;;;;1.49;100.00;102331.47;5025753;28;20025;-64
2022/12/27 07:46:17;;;;;;;8.77;4.57;;;;;;;1.49;100.00;102327.25;5025388;28;20021;-64
2022/12/27 07:48:43;;;;;;;9.40;3.97;;;;;;;1.48;100.00;102325.44;5025880;28;20025;-64
2022/12/27 07:51:10;;;;;;;13.93;4.20;;;;;;;1.52;100.00;102334.28;5025256;28;20489;-64
2022/12/27 07:53:35;;;;;;;10.10;4.27;;;;;;;1.53;100.00;102338.66;5025715;28;20447;-64
2022/12/27 07:56:09;;;;;;;11.40;4.13;;;;;;;1.54;100.00;102340.44;5024817;28;20104;-64
2022/12/27 07:58:39;;;;;;;11.43;4.53;;;;;;;1.59;100.00;102333.19;5025584;28;20057;-64
2022/12/27 08:01:05;;;;;;;10.83;4.97;;;;;;;1.64;100.00;102339.63;5028540;28;20018;-63
2022/12/27 08:03:31;;;;;;;11.73;4.40;;;;;;;1.64;100.00;102337.97;5029392;28;20055;-64
2022/12/27 08:05:56;;;;;;;9.87;4.37;;;;;;;1.66;100.00;102336.47;5029241;28;20022;-63
2022/12/27 08:08:25;;;;;;;9.50;5.10;;;;;;;1.66;100.00;102346.69;5030449;28;20029;-65
2022/12/27 08:10:51;;;;;;;8.70;4.33;;;;;;;1.70;100.00;102346.97;5029510;28;20017;-65
2022/12/27 08:13:16;;;;;;;11.53;4.33;;;;;;;1.71;100.00;102347.09;5029550;28;20025;-65
2022/12/27 08:15:42;;;;;;;7.60;4.10;;;;;;;1.76;100.00;102350.97;5028606;28;20045;-65
2022/12/27 08:18:08;;;;;;;8.80;4.10;;;;;;;1.78;100.00;102353.72;5030184;28;20079;-64
2022/12/27 08:20:34;;;;;;;13.00;4.73;;;;;;;1.80;100.00;102357.28;5026994;28;20029;-65
2022/12/27 08:22:59;;;;;;;8.77;4.03;;;;;;;1.83;100.00;102354.13;5028703;28;20140;-65
2022/12/27 08:25:25;;;;;;;12.17;4.90;;;;;;;1.84;100.00;102356.81;5025997;28;20386;-65
2022/12/27 08:27:50;;;;;;;11.50;4.60;;;;;;;1.87;100.00;102357.09;5016073;28;20029;-65
2022/12/27 08:30:16;;;;;;;12.17;4.90;;;;;;;1.91;100.00;102361.75;5018758;28;20497;-65
2022/12/27 08:32:41;;;;;;;15.07;5.60;;;;;;;1.92;100.00;102366.09;5010161;28;20024;-65
2022/12/27 08:35:06;;;;;;;9.23;4.67;;;;;;;1.96;100.00;102363.84;5027884;28;20013;-64
2022/12/27 08:37:32;;;;;;;11.87;5.17;;;;;;;1.98;100.00;102370.00;5018426;28;20036;-65
2022/12/27 08:39:57;;;;;;;10.93;4.97;;;;;;;1.98;100.00;102365.75;5023778;28;20128;-65
2022/12/27 08:42:24;;;;;;;9.43;4.60;;;;;;;2.00;100.00;102363.34;5021930;28;20381;-64
2022/12/27 08:44:49;;;;;;;7.33;4.37;;;;;;;2.01;100.00;102365.16;5016939;28;20022;-64
2022/12/27 08:47:14;;;;;;;10.73;5.27;;;;;;;2.05;100.00;102351.91;5029513;28;20033;-64
2022/12/27 08:49:40;;;;;;;11.60;4.43;;;;;;;2.08;100.00;102352.16;5016407;28;20030;-65
2022/12/27 08:52:05;;;;;;;9.67;4.47;;;;;;;2.10;100.00;102355.75;5017826;28;20061;-64
2022/12/27 08:54:30;;;;;;;7.57;4.93;;;;;;;2.24;100.00;102348.44;5010249;28;20110;-64
2022/12/27 08:56:56;;;;;;;10.53;4.20;;;;;;;2.32;100.00;102354.25;5021631;28;20033;-65
2022/12/27 08:59:21;;;;;;;10.00;4.33;;;;;;;2.36;100.00;102359.75;5028538;28;20104;-64
2022/12/27 09:01:46;;;;;;;10.33;4.00;;;;;;;2.48;100.00;102351.41;5029659;28;20086;-64
2022/12/27 09:04:11;;;;;;;8.47;4.70;;;;;;;2.50;100.00;102357.56;5027795;28;20021;-64
2022/12/27 09:06:38;;;;;;;6.13;3.93;;;;;;;2.54;100.00;102353.63;5029834;28;20033;-64
2022/12/27 09:09:03;;;;;;;7.90;3.70;;;;;;;2.50;100.00;102352.44;5016107;28;20033;-64
2022/12/27 09:11:31;;;;;;;9.97;4.50;;;;;;;2.48;100.00;102341.16;5028360;28;20067;-64
2022/12/27 09:14:01;;;;;;;7.77;3.70;;;;;;;2.54;100.00;102344.25;5010134;28;20048;-64
2022/12/27 09:16:28;;;;;;;9.93;4.30;;;;;;;2.54;100.00;102339.13;5022884;28;20392;-64
2022/12/27 09:18:55;;;;;;;10.93;4.37;;;;;;;2.55;100.00;102347.72;5028591;28;20352;-64
2022/12/27 09:21:23;;;;;;;9.13;4.13;;;;;;;2.55;100.00;102356.31;5028766;28;20090;-63
2022/12/27 09:23:49;;;;;;;11.53;3.87;;;;;;;2.59;100.00;102353.25;5015543;28;20035;-64
2022/12/27 09:26:21;;;;;;;7.80;3.40;;;;;;;2.62;100.00;102353.53;5016041;28;20025;-66
2022/12/27 09:28:47;;;;;;;8.93;3.53;;;;;;;2.67;100.00;102350.47;5021356;28;20028;-66
2022/12/27 09:31:13;;;;;;;9.33;3.80;;;;;;;2.71;100.00;102360.22;5023439;28;20096;-66
2022/12/27 09:33:39;;;;;;;10.90;4.00;;;;;;;2.74;100.00;102363.06;5015070;28;20086;-66
2022/12/27 09:36:05;;;;;;;12.53;3.90;;;;;;;2.78;100.00;102359.09;5015522;28;20029;-66
2022/12/27 09:38:30;;;;;;;9.80;3.77;;;;;;;2.84;100.00;102364.78;5014989;28;20110;-66
2022/12/27 09:40:59;;;;;;;8.23;4.47;;;;;;;2.88;100.00;102365.16;5028342;28;20488;-67
2022/12/27 09:43:55;;;;;;;6.60;3.67;;;;;;;2.92;100.00;102368.91;5028629;28;20029;-66
2022/12/27 09:46:25;;;;;;;7.33;3.33;;;;;;;2.98;100.00;102376.22;5028046;28;20028;-66
2022/12/27 09:48:54;;;;;;;11.40;3.40;;;;;;;3.02;100.00;102369.72;5028739;28;20022;-66
2022/12/27 09:51:24;;;;;;;8.27;3.17;;;;;;;3.08;100.00;102365.13;5027410;28;20095;-66
2022/12/27 09:54:09;;;;;;;7.75;3.42;;;;;;;3.12;100.00;102364.63;5028655;28;20037;-66
2022/12/27 09:56:35;;;;;;;5.67;3.17;;;;;;;3.19;100.00;102369.53;5008529;28;20037;-67
2022/12/27 09:59:12;;;;;;;8.47;3.67;;;;;;;3.25;100.00;102369.16;5010871;28;20485;-66
2022/12/27 10:01:43;;;;;;;5.27;3.37;;;;;;;3.31;100.00;102363.66;5028639;28;20385;-67
2022/12/27 10:04:11;;;;;;;7.95;3.35;;;;;;;3.41;100.00;102365.34;5010527;28;20440;-66
2022/12/27 10:06:57;;;;;;;11.50;3.23;;;;;;;3.49;100.00;102374.56;5008872;28;20444;-66
2022/12/27 10:09:32;;;;;;;6.10;3.23;;;;;;;3.56;100.00;102374.34;5009681;28;20461;-66
2022/12/27 10:12:14;;;;;;;7.53;3.57;;;;;;;3.64;100.00;102374.09;5008533;28;20033;-65
2022/12/27 10:14:57;;;;;;;7.47;3.57;;;;;;;3.70;100.00;102383.22;5020233;28;20552;-65
2022/12/27 10:17:45;;;;;;;6.50;3.30;;;;;;;3.81;100.00;102378.97;5015782;28;20029;-65
2022/12/27 10:20:35;;;;;;;7.93;3.33;;;;;;;3.91;100.00;102379.75;5015621;28;20027;-65
2022/12/27 10:23:08;;;;;;;8.47;3.17;;;;;;;3.98;100.00;102374.38;5014929;28;20453;-65
2022/12/27 10:25:34;;;;;;;11.77;3.30;;;;;;;4.05;100.00;102369.00;5028646;28;20029;-64
2022/12/27 10:28:09;;;;;;;8.10;3.17;;;;;;;4.15;100.00;102369.78;5028479;28;20022;-64
2022/12/27 10:30:34;;;;;;;9.63;3.33;;;;;;;4.21;100.00;102365.13;5014457;28;20449;-64
2022/12/27 10:33:00;;;;;;;7.70;2.95;;;;;;;4.27;100.00;102367.31;5014267;28;20057;-64
2022/12/27 10:35:27;;;;;;;8.43;3.67;;;;;;;4.33;100.00;102371.28;5016424;28;20148;-64
2022/12/27 10:37:53;;;;;;;6.90;2.88;;;;;;;4.37;100.00;102371.53;5028094;28;20513;-64
2022/12/27 10:40:36;;;;;;;7.00;3.45;;;;;;;4.46;100.00;102374.88;5028144;28;20141;-64
2022/12/27 10:43:04;;;;;;;7.83;3.47;;;;;;;4.51;100.00;102381.28;5027688;28;20654;-64
2022/12/27 10:45:38;;;;;;;6.90;3.50;;;;;;;4.54;100.00;102376.38;5027953;28;20100;-64
2022/12/27 10:48:29;;;;;;;6.60;2.80;;;;;;;4.59;100.00;102379.31;5027783;28;20021;-64
2022/12/27 10:51:08;;;;;;;6.80;3.08;;;;;;;4.62;100.00;102373.53;5020979;28;20421;-64
2022/12/27 10:53:35;;;;;;;5.85;2.97;;;;;;;4.68;100.00;102381.72;5008497;28;20466;-65
2022/12/27 10:56:08;;;;;;;7.25;2.70;;;;;;;4.68;100.00;102379.16;5008074;28;20454;-65
2022/12/27 10:58:39;;;;;;;8.73;2.77;;;;;;;4.67;100.00;102372.25;5008995;28;20046;-66
2022/12/27 11:01:13;;;;;;;8.95;3.15;;;;;;;4.68;100.00;102380.06;5010186;28;20028;-66
2022/12/27 11:03:38;;;;;;;8.93;3.33;;;;;;;4.66;100.00;102380.69;5010059;28;20486;-66
2022/12/27 11:06:14;;;;;;;4.72;2.40;;;;;;;4.65;100.00;102378.91;5010050;28;20049;-65
2022/12/27 11:08:40;;;;;;;7.47;3.17;;;;;;;4.64;100.00;102372.00;5010277;28;20025;-65
2022/12/27 11:11:21;;;;;;;6.83;3.03;;;;;;;4.63;100.00;102365.06;5009753;28;20036;-65
2022/12/27 11:13:47;;;;;;;10.15;3.38;;;;;;;4.63;100.00;102365.06;5011266;28;20382;-65
2022/12/27 11:16:27;;;;;;;7.53;3.20;;;;;;;4.64;100.00;102364.31;5009497;28;20517;-66
2022/12/27 11:18:55;;;;;;;5.10;2.67;;;;;;;4.67;100.00;102359.41;5010074;28;20072;-65
2022/12/27 11:21:21;;;;;;;4.83;2.53;;;;;;;4.67;100.00;102357.75;5010229;28;20026;-65
2022/12/27 11:23:51;;;;;;;6.30;2.60;;;;;;;4.71;100.00;102360.53;5010488;28;20029;-65
2022/12/27 11:26:20;;;;;;;6.55;2.80;;;;;;;4.74;100.00;102364.25;5010637;28;20045;-65
2022/12/27 11:28:59;;;;;;;6.40;3.67;;;;;;;4.77;100.00;102354.22;5020702;28;20156;-65
2022/12/27 11:31:39;;;;;;;8.45;2.88;;;;;;;4.80;100.00;102356.16;5013711;28;20355;-65
2022/12/27 11:34:29;;;;;;;5.85;3.13;;;;;;;4.85;100.00;102357.41;5017430;28;20018;-65
2022/12/27 11:37:03;;;;;;;5.47;2.38;;;;;;;4.88;100.00;102367.03;5031143;28;20024;-65
2022/12/27 11:39:50;;;;;;;7.88;3.10;;;;;;;4.89;100.00;102361.13;5029550;28;20021;-65
2022/12/27 11:42:37;;;;;;;6.22;2.70;;;;;;;4.89;100.00;102358.56;5031034;28;20022;-65
2022/12/27 11:45:17;;;;;;;7.47;2.80;;;;;;;4.92;100.00;102353.66;5029654;28;20075;-66
2022/12/27 11:47:54;;;;;;;6.32;2.42;;;;;;;4.91;100.00;102349.31;5030331;28;20563;-65
2022/12/27 11:50:25;;;;;;;4.72;2.42;;;;;;;4.93;100.00;102346.06;5030423;28;20494;-65
2022/12/27 11:53:09;;;;;;;8.13;3.10;;;;;;;4.96;100.00;102342.88;5030145;28;20036;-66
2022/12/27 11:55:37;;;;;;;6.03;2.65;;;;;;;5.00;100.00;102338.88;5030223;28;20029;-65
2022/12/27 11:58:18;;;;;;;5.03;2.72;;;;;;;4.98;100.00;102333.59;5017361;28;20082;-65
2022/12/27 12:00:56;;;;;;;5.20;2.65;;;;;;;5.01;100.00;102338.97;5029688;28;20029;-65
2022/12/27 12:03:54;;;;;;;7.80;2.85;;;;;;;5.00;100.00;102338.88;5029941;28;20021;-65
2022/12/27 12:06:48;;;;;;;6.22;2.28;;;;;;;4.98;100.00;102337.84;5030547;28;20044;-66
2022/12/27 12:09:33;;;;;;;5.78;2.22;;;;;;;4.93;100.00;102334.88;5028295;28;20056;-65
2022/12/27 12:12:16;;;;;;;5.82;2.47;;;;;;;4.92;100.00;102328.88;5029320;28;20032;-65
2022/12/27 12:15:23;;;;;;;6.63;2.60;;;;;;;4.91;100.00;102318.47;5030455;28;20029;-65
2022/12/27 12:18:16;;;;;;;5.28;2.35;;;;;;;4.86;100.00;102322.31;5020302;28;20132;-66
2022/12/27 12:21:23;;;;;;;5.97;2.38;;;;;;;4.86;100.00;102312.97;5029671;28;20026;-66
2022/12/27 12:23:59;;;;;;;7.45;2.55;;;;;;;4.86;100.00;102312.06;4994652;28;20038;-66
2022/12/27 12:26:25;;;;;;;7.53;3.33;;;;;;;4.85;100.00;102312.84;5028265;28;20022;-66
2022/12/27 12:29:12;;;;;;;7.82;1.90;;;;;;;4.86;100.00;102314.63;5030310;28;20097;-65
2022/12/27 12:32:03;;;;;;;6.87;2.47;;;;;;;4.86;100.00;102312.06;5027180;28;20112;-65
2022/12/27 12:34:53;;;;;;;6.47;2.13;;;;;;;4.87;100.00;102319.00;5010953;28;20300;-65
2022/12/27 12:37:18;;;;;;;7.97;2.45;;;;;;;4.89;100.00;102302.03;5019381;28;20071;-65
2022/12/27 12:40:23;;;;;;;6.57;2.35;;;;;;;4.92;100.00;102302.28;5029713;28;20454;-66
2022/12/27 12:43:07;;;;;;;3.47;2.40;;;;;;;4.93;100.00;102304.06;5029556;28;20111;-65
2022/12/27 12:46:00;;;;;;;6.80;2.45;;;;;;;4.92;100.00;102298.03;5030035;28;20013;-65
2022/12/27 12:49:14;;;;;;;9.68;2.65;;;;;;;4.93;100.00;102291.22;5018406;28;20040;-66
2022/12/27 12:52:12;;;;;;;5.73;2.50;;;;;;;4.91;100.00;102290.22;4910513;29;20048;-65
2022/12/27 12:54:55;;;;;;;5.15;2.10;;;;;;;4.91;100.00;102283.38;5028853;28;20494;-66
2022/12/27 12:58:04;;;;;;;6.68;2.25;;;;;;;4.91;100.00;102274.81;5016208;28;20050;-66
2022/12/27 13:00:45;;;;;;;6.82;2.47;;;;;;;4.92;100.00;102263.75;5016214;28;20026;-65
2022/12/27 13:03:52;;;;;;;9.40;2.45;;;;;;;4.93;100.00;102262.94;5019470;28;20034;-65
2022/12/27 13:06:29;;;;;;;6.40;2.60;;;;;;;4.96;100.00;102249.47;4999756;28;20100;-65
2022/12/27 13:09:30;;;;;;;6.53;2.17;;;;;;;4.97;100.00;102241.88;5009935;28;20084;-66
2022/12/27 13:12:27;;;;;;;7.65;2.10;;;;;;;5.01;100.00;102245.56;5022816;28;20508;-65
2022/12/27 13:14:53;;;;;;;5.95;2.30;;;;;;;5.03;100.00;102234.66;5007162;28;20045;-66
2022/12/27 13:17:43;;;;;;;3.85;2.03;;;;;;;5.06;100.00;102244.25;5009261;28;20029;-65
2022/12/27 13:20:30;;;;;;;5.30;3.17;;;;;;;5.07;100.00;102230.63;5026059;28;20112;-66
2022/12/27 13:23:15;;;;;;;8.07;2.67;;;;;;;5.04;100.00;102233.84;5028876;28;20116;-65
2022/12/27 13:25:57;;;;;;;8.77;3.30;;;;;;;5.04;100.00;102231.28;5018444;28;20484;-66
2022/12/27 13:28:43;;;;;;;7.07;3.23;;;;;;;5.02;100.00;102243.13;5028877;28;20025;-65
2022/12/27 13:31:27;;;;;;;7.60;2.90;;;;;;;5.02;100.00;102234.50;5010417;28;20026;-66